ENGM/OSL METAR and TAF weather

Enter ICAO airport designator
Station Type Date Time Source
ENGM METAR 2018/07/20 14:20 UTC NOAA

ENGM 201420Z 19011KT 160V220 CAVOK 29/11 Q1009 NOSIG


Station Type Date Time Source
ENGM Decoded METAR 2018/07/20 14:20 UTC NOAA

Oslo / Gardermoen, Norway (ENGM) 60-12N 011-05E 204M
Jul 20, 2018 - 10:20 AM EDT / 2018.07.20 1420 UTC
Wind: from the S (190 degrees) at 13 MPH (11 KT) (direction variable):0
Visibility: greater than 7 mile(s):0
Temperature: 84 F (29 C)
Dew Point: 51 F (11 C)
Relative Humidity: 32%
Pressure (altimeter): 29.80 in. Hg (1009 hPa)
ob: ENGM 201420Z 19011KT 160V220 CAVOK 29/11 Q1009 NOSIG
cycle: 14

Station Type Date Time Source
ENGM TAF 2018/07/20 12:57 UTC NOAA

TAF ENGM 201100Z 2012/2112 19010KT 9999 FEW040 SCT080 PROB30
TEMPO 2012/2018 FEW040CB BKN060
BECMG 2021/2023 VRB05KT
BECMG 2110/2112 19010KT


Example: see airport list